DEN weather

Denver International Airport
Denver, Colorado, United States

Public forecast

Using degrees Fahrenheit for public forecast. Weather courtesy of forecast.io.

Current aviation weather report (METAR) for Denver International Airport

Retrieved 2019/10/22 23:53 UTC (1 hour ago):

KDEN 222353Z 31013KT 10SM BKN110 BKN150 BKN200 14/M03 A2998 RMK AO2 SLP132 T01441033 10178 20144 57005

Aviation forecast (TAF) for Denver International Airport

Retrieved 2019-10-23 00:39 UTC (19 minutes ago):

TAF KDEN 222336Z 2300/2406 29010G22KT P6SM FEW100 BKN140 BKN200 FM230100 26010KT P6SM SCT140 SCT200 FM230300 22008KT P6SM FEW200 FM231000 30008KT P6SM SCT100 BKN200 FM231500 33011KT P6SM SCT080 BKN200 FM232100 03015G25KT P6SM -SHRA BKN040 BKN080 FM240200 03008G18KT 4SM -SHSN BR BKN015 OVC030 TEMPO 2402/2406 1/2SM -SHSN FG OVC006